createdAt,value
2023-05-06T00:02:24.296Z,62.93
2023-05-06T00:05:47.648Z,62.85
2023-05-06T00:09:10.943Z,62.55
2023-05-06T00:12:33.304Z,62.51
2023-05-06T00:15:55.099Z,63.14
2023-05-06T00:19:16.960Z,63.40
2023-05-06T00:22:38.686Z,63.56
2023-05-06T00:26:01.766Z,63.27
2023-05-06T00:29:23.681Z,63.25
2023-05-06T00:32:45.490Z,63.57
2023-05-06T00:36:07.763Z,63.43
2023-05-06T00:39:31.173Z,63.95
2023-05-06T00:42:54.445Z,65.10
2023-05-06T00:46:17.382Z,65.50
2023-05-06T00:49:39.414Z,65.78
2023-05-06T00:53:03.446Z,65.70
2023-05-06T00:56:25.205Z,65.79
2023-05-06T00:59:48.414Z,66.11
2023-05-06T01:03:10.586Z,66.19
2023-05-06T01:06:43.548Z,67.18
2023-05-06T01:10:18.890Z,67.48
2023-05-06T01:13:48.306Z,68.22
2023-05-06T01:17:14.195Z,67.84
2023-05-06T01:20:38.440Z,68.35
2023-05-06T01:24:02.405Z,69.29
2023-05-06T01:27:24.802Z,70.34
2023-05-06T01:30:56.022Z,70.88
2023-05-06T01:34:23.612Z,70.36
2023-05-06T01:37:49.516Z,71.23
2023-05-06T01:41:17.714Z,71.58
2023-05-06T01:44:41.104Z,71.75
2023-05-06T01:48:03.235Z,71.52
2023-05-06T01:51:25.222Z,71.89
2023-05-06T01:54:47.163Z,72.51
2023-05-06T01:58:10.283Z,72.37
2023-05-06T02:01:32.322Z,73.25
2023-05-06T02:04:54.712Z,73.48
2023-05-06T02:08:16.652Z,73.92
2023-05-06T02:11:38.697Z,73.25
2023-05-06T02:15:02.124Z,72.74
2023-05-06T02:18:25.540Z,72.68
2023-05-06T02:21:47.251Z,72.37
2023-05-06T02:25:10.649Z,72.71
2023-05-06T02:28:32.559Z,72.84
2023-05-06T02:31:56.289Z,72.30
2023-05-06T02:35:18.466Z,73.11
2023-05-06T02:38:40.640Z,72.75
2023-05-06T02:42:02.589Z,72.54
2023-05-06T02:45:24.164Z,72.73
2023-05-06T02:48:47.357Z,72.89
2023-05-06T02:52:09.603Z,73.03
2023-05-06T02:55:31.818Z,73.88
2023-05-06T02:58:54.589Z,73.52
2023-05-06T03:02:16.781Z,74.20
2023-05-06T03:05:39.897Z,73.49
2023-05-06T03:09:02.163Z,74.81
2023-05-06T03:12:24.010Z,74.36
2023-05-06T03:15:45.922Z,74.10
2023-05-06T03:19:07.687Z,72.97
2023-05-06T03:22:31.207Z,70.90
2023-05-06T03:25:53.049Z,70.49
2023-05-06T03:29:15.056Z,69.89
2023-05-06T03:32:36.879Z,69.86
2023-05-06T03:35:58.580Z,70.03
2023-05-06T03:39:22.054Z,69.92
2023-05-06T03:42:44.165Z,69.54
2023-05-06T03:46:06.135Z,68.69
2023-05-06T03:49:28.019Z,68.42
2023-05-06T03:52:50.063Z,67.29
2023-05-06T03:56:13.387Z,67.13
2023-05-06T03:59:35.290Z,66.52
2023-05-06T04:02:57.284Z,66.67
2023-05-06T04:06:19.249Z,65.66
2023-05-06T04:09:41.008Z,65.86
2023-05-06T04:13:04.198Z,65.14
2023-05-06T04:16:26.695Z,64.89
2023-05-06T04:19:48.530Z,64.25
2023-05-06T04:23:10.385Z,63.09
2023-05-06T04:26:33.189Z,63.15
2023-05-06T04:29:56.622Z,62.53
2023-05-06T04:33:18.820Z,62.17
2023-05-06T04:36:40.879Z,61.96
2023-05-06T04:40:04.269Z,61.40
2023-05-06T04:43:26.773Z,62.17
2023-05-06T04:46:49.760Z,62.26
2023-05-06T04:50:13.127Z,63.01
2023-05-06T04:53:35.309Z,62.93
2023-05-06T04:56:57.317Z,62.41
2023-05-06T05:00:19.847Z,61.83
2023-05-06T05:03:43.313Z,62.49
2023-05-06T05:07:05.396Z,62.15
2023-05-06T05:10:27.262Z,61.88
2023-05-06T05:13:49.548Z,62.11
2023-05-06T05:17:11.968Z,61.72
2023-05-06T05:20:35.029Z,62.01
2023-05-06T05:23:57.088Z,61.23
2023-05-06T05:27:19.037Z,61.67
2023-05-06T05:30:40.934Z,60.96
2023-05-06T05:34:03.102Z,60.66
2023-05-06T05:37:26.381Z,60.15
2023-05-06T05:40:48.166Z,59.28
2023-05-06T05:44:10.158Z,58.90
2023-05-06T05:47:31.892Z,59.14
2023-05-06T05:50:53.584Z,55.81
2023-05-06T05:54:16.746Z,55.28
2023-05-06T05:57:38.743Z,51.89
2023-05-06T06:01:01.851Z,53.63
2023-05-06T06:04:23.766Z,52.38
2023-05-06T06:07:45.507Z,52.80
2023-05-06T06:11:08.863Z,50.65
2023-05-06T06:14:30.954Z,50.15
2023-05-06T06:17:54.700Z,48.67
2023-05-06T06:21:17.222Z,49.74
2023-05-06T06:24:39.515Z,49.90
2023-05-06T06:28:02.737Z,50.40
2023-05-06T06:31:25.000Z,49.15
2023-05-06T06:34:46.861Z,48.53
2023-05-06T06:38:09.005Z,48.70
2023-05-06T06:41:30.862Z,49.06
2023-05-06T06:44:53.961Z,49.12
2023-05-06T06:48:16.567Z,48.85
2023-05-06T06:51:38.297Z,48.46
2023-05-06T06:55:00.455Z,48.46
2023-05-06T06:58:22.151Z,48.57
2023-05-06T07:01:45.745Z,47.88
2023-05-06T07:05:08.307Z,48.32
2023-05-06T07:08:30.489Z,47.56
2023-05-06T07:11:52.720Z,47.27
2023-05-06T07:15:14.279Z,46.64
2023-05-06T07:18:37.864Z,46.16
2023-05-06T07:22:00.025Z,44.97
2023-05-06T07:25:21.768Z,42.18
2023-05-06T07:28:43.549Z,42.31
2023-05-06T07:32:06.142Z,41.13
2023-05-06T07:35:29.598Z,40.41
2023-05-06T07:38:51.758Z,41.01
2023-05-06T07:42:13.783Z,41.92
2023-05-06T07:45:35.641Z,41.20
2023-05-06T07:48:57.390Z,37.70
2023-05-06T07:52:20.749Z,40.14
2023-05-06T07:55:42.654Z,39.45
2023-05-06T07:59:04.420Z,39.78
2023-05-06T08:02:27.278Z,39.96
2023-05-06T08:05:51.169Z,39.22
2023-05-06T08:09:22.355Z,39.08
2023-05-06T08:12:44.837Z,40.17
2023-05-06T08:16:07.934Z,40.20
2023-05-06T08:19:30.204Z,39.40
2023-05-06T08:22:52.374Z,37.99
2023-05-06T08:26:15.693Z,38.29
2023-05-06T08:29:37.718Z,39.70
2023-05-06T08:32:59.592Z,39.95
2023-05-06T08:36:22.125Z,39.19
2023-05-06T08:39:45.578Z,38.43
2023-05-06T08:43:14.536Z,36.48
2023-05-06T08:46:36.902Z,36.03
2023-05-06T08:49:58.906Z,37.83
2023-05-06T08:53:20.929Z,36.54
2023-05-06T08:56:48.704Z,36.05
2023-05-06T09:00:13.267Z,34.89
2023-05-06T09:03:35.384Z,35.56
2023-05-06T09:06:59.030Z,34.73
2023-05-06T09:10:21.132Z,34.19
2023-05-06T09:13:43.042Z,35.03
2023-05-06T09:17:06.160Z,35.75
2023-05-06T09:20:28.232Z,35.40
2023-05-06T09:23:50.383Z,35.29
2023-05-06T09:27:15.116Z,35.75
2023-05-06T09:30:40.495Z,34.67
2023-05-06T09:34:03.554Z,34.64
2023-05-06T09:37:27.541Z,34.26
2023-05-06T09:40:49.491Z,33.74
2023-05-06T09:44:12.991Z,34.41
2023-05-06T09:47:35.846Z,34.65
2023-05-06T09:51:01.326Z,33.67
2023-05-06T09:54:24.031Z,33.85
2023-05-06T09:57:46.559Z,34.03
2023-05-06T10:01:09.850Z,34.42
2023-05-06T10:04:34.998Z,33.89
2023-05-06T10:07:59.469Z,31.71
2023-05-06T10:11:23.119Z,34.15
2023-05-06T10:14:44.810Z,33.19
2023-05-06T10:18:08.743Z,33.24
2023-05-06T10:21:34.609Z,32.86
2023-05-06T10:25:04.832Z,33.21
2023-05-06T10:28:30.477Z,33.19
2023-05-06T10:31:56.329Z,32.12
2023-05-06T10:35:29.043Z,33.12
2023-05-06T10:38:56.670Z,32.92
2023-05-06T10:42:19.868Z,33.67
2023-05-06T10:46:01.254Z,34.12
2023-05-06T10:49:23.231Z,34.17
2023-05-06T10:52:46.090Z,33.58
2023-05-06T10:56:10.658Z,33.00
2023-05-06T10:59:34.098Z,32.96
2023-05-06T11:02:59.048Z,34.48
2023-05-06T11:06:37.692Z,32.56
2023-05-06T11:10:00.676Z,32.99
2023-05-06T11:13:26.310Z,32.95
2023-05-06T11:16:51.018Z,32.19
2023-05-06T11:20:23.620Z,33.00
2023-05-06T11:24:14.226Z,32.35
2023-05-06T11:27:37.653Z,32.64
2023-05-06T11:31:01.997Z,31.99
2023-05-06T11:34:28.096Z,33.49
2023-05-06T11:37:49.967Z,32.56
2023-05-06T11:41:11.818Z,33.98
2023-05-06T11:44:35.721Z,34.00
2023-05-06T11:47:57.661Z,33.65
2023-05-06T11:51:25.036Z,30.85
2023-05-06T11:58:14.223Z,33.42
2023-05-06T12:01:36.370Z,32.89
2023-05-06T12:04:58.605Z,34.27
2023-05-06T12:08:27.858Z,32.92
2023-05-06T12:11:50.766Z,33.64
2023-05-06T12:15:13.832Z,33.77
2023-05-06T12:18:36.028Z,33.50
2023-05-06T12:22:14.916Z,34.29
2023-05-06T12:25:39.099Z,33.55
2023-05-06T12:29:09.141Z,33.72
2023-05-06T12:32:32.305Z,33.06
2023-05-06T12:35:57.113Z,33.74
2023-05-06T12:39:18.862Z,33.58
2023-05-06T12:42:42.152Z,33.95
2023-05-06T12:46:05.758Z,33.90
2023-05-06T12:49:27.633Z,34.18
2023-05-06T12:52:49.430Z,34.11
2023-05-06T12:56:11.201Z,34.72
2023-05-06T12:59:34.884Z,33.78
2023-05-06T13:02:57.033Z,32.79
2023-05-06T13:06:18.747Z,33.41
2023-05-06T13:09:40.743Z,33.62
2023-05-06T13:13:02.727Z,33.67
2023-05-06T13:16:26.105Z,33.65
2023-05-06T13:19:48.266Z,33.93
2023-05-06T13:23:10.079Z,34.59
2023-05-06T13:26:31.870Z,34.42
2023-05-06T13:29:53.810Z,35.01
2023-05-06T13:33:17.266Z,34.52
2023-05-06T13:36:39.333Z,33.87
2023-05-06T13:40:01.156Z,34.22
2023-05-06T13:43:24.845Z,33.71
2023-05-06T13:46:47.029Z,34.18
2023-05-06T13:50:11.254Z,34.30
2023-05-06T13:53:33.438Z,35.00
2023-05-06T13:56:55.085Z,34.44
2023-05-06T14:00:17.878Z,34.23
2023-05-06T14:03:39.825Z,34.29
2023-05-06T14:07:02.976Z,34.10
2023-05-06T14:10:25.078Z,33.50
2023-05-06T14:13:47.186Z,34.58
2023-05-06T14:17:09.014Z,33.84
2023-05-06T14:20:30.866Z,35.12
2023-05-06T14:23:54.083Z,34.79
2023-05-06T14:27:16.195Z,33.48
2023-05-06T14:30:38.947Z,35.43
2023-05-06T14:34:01.033Z,35.15
2023-05-06T14:37:22.950Z,34.84
2023-05-06T14:40:46.095Z,35.05
2023-05-06T14:44:08.093Z,35.46
2023-05-06T14:47:30.150Z,35.02
2023-05-06T14:50:51.992Z,35.26
2023-05-06T14:54:13.998Z,34.27
2023-05-06T14:57:37.616Z,36.55
2023-05-06T15:00:59.366Z,35.36
2023-05-06T15:04:21.019Z,35.57
2023-05-06T15:07:43.094Z,34.23
2023-05-06T15:11:04.863Z,33.77
2023-05-06T15:14:28.075Z,34.99
2023-05-06T15:17:52.396Z,34.95
2023-05-06T15:21:14.436Z,34.33
2023-05-06T15:24:36.895Z,34.64
2023-05-06T15:27:58.950Z,33.54
2023-05-06T15:31:22.131Z,33.68
2023-05-06T15:34:44.218Z,34.02
2023-05-06T15:38:06.243Z,34.45
2023-05-06T15:41:29.342Z,34.36
2023-05-06T15:44:51.664Z,34.60
2023-05-06T15:48:15.122Z,34.80
2023-05-06T15:51:36.697Z,35.19
2023-05-06T15:55:00.034Z,34.99
2023-05-06T15:58:22.316Z,34.92
2023-05-06T16:05:13.084Z,36.13
2023-05-06T16:08:35.342Z,35.72
2023-05-06T16:11:57.462Z,35.11
2023-05-06T16:15:20.710Z,34.50
2023-05-06T16:18:42.782Z,34.26
2023-05-06T16:22:06.311Z,33.56
2023-05-06T16:25:28.357Z,32.35
2023-05-06T16:28:50.272Z,31.71
2023-05-06T16:32:11.938Z,32.19
2023-05-06T16:35:34.214Z,30.86
2023-05-06T16:38:57.755Z,30.26
2023-05-06T16:42:19.947Z,31.36
2023-05-06T16:45:45.346Z,31.53
2023-05-06T16:49:07.444Z,31.17
2023-05-06T16:52:30.756Z,31.44
2023-05-06T16:55:53.995Z,31.15
2023-05-06T16:59:15.685Z,31.67
2023-05-06T17:02:37.494Z,32.75
2023-05-06T17:05:59.198Z,31.72
2023-05-06T17:09:21.536Z,31.45
2023-05-06T17:12:44.951Z,31.69
2023-05-06T17:16:07.973Z,31.17
2023-05-06T17:19:29.952Z,32.13
2023-05-06T17:22:52.551Z,31.29
2023-05-06T17:26:16.775Z,31.26
2023-05-06T17:29:40.068Z,30.68
2023-05-06T17:33:02.671Z,30.57
2023-05-06T17:36:24.672Z,31.33
2023-05-06T17:39:47.325Z,30.85
2023-05-06T17:43:09.292Z,31.34
2023-05-06T17:46:33.584Z,31.99
2023-05-06T17:49:55.355Z,31.79
2023-05-06T17:53:17.096Z,31.99
2023-05-06T17:56:39.039Z,32.94
2023-05-06T18:00:00.835Z,33.77
2023-05-06T18:04:31.725Z,34.25
2023-05-06T18:07:55.631Z,34.89
2023-05-06T18:11:42.105Z,36.15
2023-05-06T18:35:48.299Z,39.23
2023-05-06T18:39:10.484Z,39.98
2023-05-06T18:42:33.339Z,40.27
2023-05-06T18:45:56.237Z,41.71
2023-05-06T18:49:18.678Z,42.26
2023-05-06T18:52:43.294Z,42.33
2023-05-06T18:56:06.283Z,44.36
2023-05-06T18:59:28.424Z,44.25
2023-05-06T19:02:51.039Z,49.17
2023-05-06T19:06:15.596Z,45.76
2023-05-06T19:09:39.124Z,47.13
2023-05-06T19:13:01.649Z,48.02
2023-05-06T19:16:24.821Z,49.10
2023-05-06T19:19:48.719Z,49.26
2023-05-06T19:23:11.574Z,47.75
2023-05-06T19:26:35.667Z,49.16
2023-05-06T19:29:57.769Z,49.11
2023-05-06T19:33:23.773Z,50.59
2023-05-06T19:36:45.905Z,50.44
2023-05-06T19:40:09.529Z,50.77
2023-05-06T19:43:33.103Z,52.89
2023-05-06T19:46:55.521Z,53.06
2023-05-06T19:50:17.765Z,53.73
2023-05-06T19:53:39.748Z,53.34
2023-05-06T19:57:02.334Z,55.29
2023-05-06T20:00:28.194Z,53.73
2023-05-06T20:03:50.307Z,55.13
2023-05-06T20:07:12.220Z,53.80
2023-05-06T20:10:33.960Z,56.16
2023-05-06T20:13:55.991Z,54.79
2023-05-06T20:17:19.461Z,55.32
2023-05-06T20:20:41.390Z,56.00
2023-05-06T20:24:03.438Z,55.08
2023-05-06T20:27:25.492Z,57.65
2023-05-06T20:30:49.168Z,58.88
2023-05-06T20:34:12.586Z,59.09
2023-05-06T20:37:36.635Z,58.19
2023-05-06T20:40:59.261Z,58.09
2023-05-06T20:44:21.535Z,58.18
2023-05-06T20:47:43.874Z,59.08
2023-05-06T20:51:07.072Z,58.13
2023-05-06T20:54:29.449Z,58.22
2023-05-06T20:57:51.535Z,58.58
2023-05-06T21:01:13.565Z,58.43
2023-05-06T21:04:35.556Z,58.26
2023-05-06T21:07:58.932Z,57.28
2023-05-06T21:11:21.201Z,58.29
2023-05-06T21:14:42.950Z,59.00
2023-05-06T21:18:05.298Z,59.57
2023-05-06T21:21:27.358Z,58.73
2023-05-06T21:24:50.770Z,60.27
2023-05-06T21:28:13.787Z,60.14
2023-05-06T21:31:35.777Z,60.84
2023-05-06T21:34:57.500Z,60.36
2023-05-06T21:38:19.338Z,61.28
2023-05-06T21:41:42.396Z,61.59
2023-05-06T21:45:04.600Z,62.04
2023-05-06T21:48:26.513Z,62.48
2023-05-06T21:51:48.283Z,62.70
2023-05-06T21:55:11.450Z,62.49
2023-05-06T21:58:35.256Z,64.11
2023-05-06T22:01:57.863Z,64.08
2023-05-06T22:05:20.484Z,63.79
2023-05-06T22:08:43.154Z,64.69
2023-05-06T22:12:08.786Z,64.72
2023-05-06T22:15:32.368Z,64.55
2023-05-06T22:18:54.475Z,64.92
2023-05-06T22:22:16.424Z,64.26
2023-05-06T22:25:38.360Z,64.52
2023-05-06T22:29:00.768Z,64.46
2023-05-06T22:32:24.424Z,64.25
2023-05-06T22:35:46.390Z,66.03
2023-05-06T22:39:08.150Z,66.35
2023-05-06T22:42:30.189Z,66.30
2023-05-06T22:45:52.118Z,66.34
2023-05-06T22:49:16.076Z,66.44
2023-05-06T22:52:38.229Z,67.04
2023-05-06T22:56:00.296Z,66.78
2023-05-06T22:59:22.153Z,67.02
2023-05-06T23:02:44.236Z,67.56
2023-05-06T23:06:07.980Z,68.14
2023-05-06T23:09:29.818Z,68.76
2023-05-06T23:12:51.661Z,68.76
2023-05-06T23:16:14.734Z,68.35
2023-05-06T23:19:37.360Z,68.33
2023-05-06T23:23:00.705Z,68.43
2023-05-06T23:26:22.938Z,68.62
2023-05-06T23:29:44.628Z,67.95
2023-05-06T23:33:07.140Z,68.21
2023-05-06T23:36:28.903Z,68.71
2023-05-06T23:39:52.386Z,68.83
2023-05-06T23:43:14.314Z,68.71
2023-05-06T23:46:36.212Z,68.49
2023-05-06T23:49:58.909Z,68.12
2023-05-06T23:53:20.633Z,68.70
2023-05-06T23:56:44.969Z,68.62
